Clermont County, Batavia, OH

4:03 AM EST on December 07, 2019 (GMT -0500)
Clermont County, Batavia

Weather History for KI69 - September, 2019

Change the Weather History Date:

Monday, September 23, 2019

  Actual Average (KLUK) Record (KLUK)
Temperature  
Mean Temperature 74 °F -  
Max Temperature 83 °F 73 °F 96 °F (2010)
Min Temperature 64 °F 53 °F 35 °F (1974)
Cooling Degree Days 9    
Growing Degree Days 24 (Base 50)    
Moisture  
Dew Point 61 °F    
Average Humidity 67    
Maximum Humidity 96    
Minimum Humidity 36    
Precipitation  
Precipitation 0.05 in - - ()
Sea Level Pressure  
Sea Level Pressure 30.00 in    
Wind  
Wind Speed 8 mph (WSW)    
Max Wind Speed 14 mph    
Max Gust Speed 21 mph    
Visibility 10 miles    
Events Rain    
Averages and records for this station are not official NWS values.
T = Trace of Precipitation, MM = Missing Value Source: NWS Daily Summary

Daily Weather History Graph

Daily Weather History Graph

Search for Another Location

Airport or City:

Astronomy

Sep. 23, 2019 Rise Set
Actual Time 7:25 AM EDT 7:32 PM EDT
Civil Twilight 6:58 AM EDT 7:59 PM EDT
Nautical Twilight 6:27 AM EDT 8:30 PM EDT
Astronomical Twilight 5:55 AM EDT 9:01 PM EDT
Moon 1:10 AM EDT (9/23) 4:22 PM EDT (9/23)
Length of Visible Light 13h 00m
Length of Day
12h 07m
Waning Crescent, 33% of the Moon is Illuminated
Sep 23
Waning Crescent
Sep 28
New
Oct 5
First Quarter
Oct 13
Full
Oct 21
Last Quarter

Hourly Weather History & Observations

Time (EDT) Temp. Heat Index Dew Point Humidity Pressure Visibility Wind Dir Wind Speed Gust Speed Precip Events Conditions
12:15 AM 75.0 °F - 56.3 °F 52% 30.01 in 10.0 mi SW 5.8 mph - N/A   Clear
12:35 AM 74.3 °F - 56.3 °F 53% 30.01 in 10.0 mi SW 6.9 mph - N/A   Clear
12:59 AM 73.9 °F - 56.3 °F 54% 30.01 in 10.0 mi SW 6.9 mph - N/A   Clear
1:18 AM 74.3 °F - 56.5 °F 54% 30.01 in 10.0 mi SW 6.9 mph - N/A   Mostly Cloudy
1:36 AM 74.3 °F - 56.5 °F 54% 30.00 in 10.0 mi SW 8.1 mph - N/A   Overcast
1:55 AM 73.9 °F - 56.7 °F 55% 30.00 in 10.0 mi SW 8.1 mph - N/A   Overcast
2:15 AM 74.3 °F - 56.8 °F 54% 30.00 in 10.0 mi SSW 8.1 mph - N/A   Overcast
2:39 AM 73.6 °F - 57.0 °F 56% 29.99 in 10.0 mi SSW 5.8 mph - N/A   Scattered Clouds
2:57 AM 73.8 °F - 57.0 °F 56% 29.99 in 10.0 mi SSW 6.9 mph - N/A   Scattered Clouds
3:16 AM 73.8 °F - 57.2 °F 56% 29.99 in 10.0 mi SW 6.9 mph - N/A   Overcast
3:35 AM 73.4 °F - 57.7 °F 58% 29.99 in 10.0 mi SW 5.8 mph - N/A   Overcast
3:55 AM 73.0 °F - 57.7 °F 59% 29.99 in 10.0 mi SW 6.9 mph - N/A   Overcast
4:19 AM 72.5 °F - 59.0 °F 62% 29.99 in 10.0 mi SW 6.9 mph - N/A Rain Light Rain
4:37 AM 70.0 °F - 60.8 °F 73% 29.99 in 10.0 mi SW 6.9 mph - N/A Rain Light Rain
4:55 AM 69.3 °F - 61.9 °F 77% 29.99 in 10.0 mi WSW 6.9 mph - N/A Rain Rain
5:16 AM 68.9 °F - 63.5 °F 83% 29.98 in 10.0 mi SW 10.4 mph - N/A   Light Drizzle
5:35 AM 68.9 °F - 64.4 °F 86% 29.99 in 10.0 mi WSW 9.2 mph - N/A Rain Light Rain
5:59 AM 68.2 °F - 64.9 °F 89% 29.99 in 10.0 mi SW 9.2 mph - 0.02 in Rain Light Rain
6:17 AM 68.9 °F - 66.2 °F 91% 29.98 in 10.0 mi WSW 9.2 mph - N/A Rain Rain
6:55 AM 69.8 °F - 67.1 °F 91% 29.99 in 10.0 mi SW 11.5 mph - N/A Rain Light Rain
7:15 AM 69.3 °F - 67.6 °F 95% 29.99 in 7.0 mi SW 11.5 mph - 0.02 in Rain Rain
7:39 AM 69.1 °F - 67.6 °F 95% 29.99 in 10.0 mi SW 9.2 mph - 0.03 in   Overcast
7:57 AM 68.5 °F - 67.1 °F 95% 29.99 in 10.0 mi SSW 8.1 mph - 0.03 in   Overcast
8:15 AM 68.0 °F - 66.7 °F 96% 29.99 in 10.0 mi SSW 8.1 mph - N/A   Overcast
8:35 AM 68.9 °F - 67.1 °F 94% 29.99 in 10.0 mi SW 8.1 mph - N/A   Overcast
8:55 AM 69.3 °F - 67.5 °F 94% 29.99 in 10.0 mi SW 9.2 mph - N/A   Overcast
9:19 AM 69.1 °F - 67.6 °F 95% 29.99 in 7.0 mi SW 9.2 mph - N/A Rain Light Rain
9:37 AM 69.8 °F - 68.2 °F 95% 30.00 in 10.0 mi SW 9.2 mph - N/A   Overcast
9:55 AM 70.0 °F - 68.2 °F 94% 30.00 in 10.0 mi SW 10.4 mph - N/A   Overcast
10:15 AM 70.2 °F - 68.4 °F 94% 30.01 in 10.0 mi SW 8.1 mph - N/A   Overcast
10:35 AM 70.3 °F - 68.2 °F 93% 30.01 in 10.0 mi SW 6.9 mph - N/A   Overcast
10:59 AM 70.3 °F - 68.4 °F 93% 30.00 in 10.0 mi SW 6.9 mph - N/A   Overcast
11:17 AM 70.7 °F - 68.5 °F 93% 30.01 in 10.0 mi SW 6.9 mph - N/A   Overcast
11:35 AM 70.7 °F - 68.7 °F 93% 30.01 in 10.0 mi SW 5.8 mph - N/A   Overcast
11:55 AM 71.6 °F - 68.9 °F 91% 30.00 in 10.0 mi SW 5.8 mph - N/A   Overcast
12:15 PM 72.3 °F - 69.3 °F 90% 30.00 in 10.0 mi SW 5.8 mph - N/A   Overcast
12:38 PM 73.4 °F - 70.3 °F 90% 30.00 in 10.0 mi SW 6.9 mph - N/A   Overcast
12:57 PM 73.9 °F - 70.2 °F 88% 30.00 in 10.0 mi SW 6.9 mph - N/A   Overcast
1:15 PM 74.8 °F - 70.2 °F 85% 30.00 in 10.0 mi SW 8.1 mph - N/A   Overcast
1:35 PM 77.0 °F - 70.2 °F 79% 29.99 in 10.0 mi SW 11.5 mph - N/A   Scattered Clouds
1:55 PM 78.6 °F - 69.6 °F 74% 29.98 in 10.0 mi WSW 10.4 mph - N/A   Scattered Clouds
2:18 PM 78.4 °F - 68.9 °F 72% 29.98 in 10.0 mi SW 10.4 mph - N/A   Mostly Cloudy
2:36 PM 79.2 °F - 68.5 °F 70% 29.98 in 10.0 mi West 13.8 mph 17.3 mph N/A   Overcast
2:55 PM 81.3 °F 83.6 °F 66.9 °F 61% 29.97 in 10.0 mi West 10.4 mph - N/A   Scattered Clouds
3:15 PM 80.6 °F 82.2 °F 64.0 °F 57% 29.97 in 10.0 mi WNW 8.1 mph - N/A   Scattered Clouds
3:35 PM 81.9 °F 82.9 °F 62.6 °F 52% 29.97 in 10.0 mi West 6.9 mph 10.4 mph N/A   Scattered Clouds
4:16 PM 83.7 °F 83.6 °F 59.7 °F 44% 29.96 in 10.0 mi West 10.4 mph 18.4 mph N/A   Scattered Clouds
4:35 PM 82.9 °F 82.3 °F 56.3 °F 40% 29.96 in 10.0 mi WNW 11.5 mph 20.7 mph N/A   Scattered Clouds
4:55 PM 82.8 °F 81.7 °F 53.8 °F 37% 29.96 in 10.0 mi West 9.2 mph 17.3 mph N/A   Clear
5:15 PM 82.4 °F 81.4 °F 53.6 °F 37% 29.96 in 10.0 mi WNW 13.8 mph - N/A   Clear
5:38 PM 82.2 °F 81.2 °F 53.1 °F 36% 29.96 in 10.0 mi WNW 10.4 mph - N/A   Clear
5:56 PM 81.5 °F - 52.2 °F 36% 29.97 in 10.0 mi WNW 11.5 mph 18.4 mph N/A   Scattered Clouds
6:15 PM 80.8 °F - 52.7 °F 38% 29.97 in 10.0 mi West 12.7 mph 18.4 mph N/A   Clear
6:35 PM 80.2 °F - 50.9 °F 36% 29.98 in 10.0 mi West 10.4 mph - N/A   Clear
6:55 PM 79.0 °F - 52.5 °F 40% 29.98 in 10.0 mi West 9.2 mph 18.4 mph N/A   Clear
7:18 PM 77.9 °F - 53.6 °F 43% 29.99 in 10.0 mi NNW 6.9 mph - N/A   Clear
7:36 PM 76.3 °F - 54.5 °F 47% 29.99 in 10.0 mi NNW 8.1 mph - N/A   Scattered Clouds
7:55 PM 74.5 °F - 54.0 °F 49% 30.00 in 10.0 mi NW 8.1 mph - N/A   Scattered Clouds
8:15 PM 73.4 °F - 54.5 °F 51% 30.01 in 10.0 mi NW 8.1 mph - N/A   Clear
8:40 PM 71.8 °F - 54.5 °F 54% 30.01 in 10.0 mi NW 5.8 mph - N/A   Clear
8:58 PM 70.9 °F - 54.9 °F 57% 30.01 in 10.0 mi NW 4.6 mph - N/A   Clear
9:16 PM 70.0 °F - 54.9 °F 59% 30.02 in 10.0 mi NW 4.6 mph - N/A   Clear
9:35 PM 69.1 °F - 54.9 °F 60% 30.02 in 10.0 mi NW 4.6 mph - N/A   Clear
9:55 PM 68.4 °F - 54.1 °F 60% 30.04 in 10.0 mi NNW 8.1 mph - N/A   Clear
10:19 PM 68.2 °F - 52.5 °F 57% 30.04 in 10.0 mi NNW 6.9 mph - N/A   Clear
10:38 PM 67.3 °F - 51.8 °F 58% 30.05 in 10.0 mi NNW 4.6 mph - N/A   Clear
10:56 PM 66.4 °F - 51.8 °F 59% 30.05 in 10.0 mi North 4.6 mph - N/A   Clear
11:15 PM 65.8 °F - 50.9 °F 58% 30.04 in 10.0 mi North 4.6 mph - N/A   Clear
11:35 PM 65.3 °F - 50.4 °F 58% 30.05 in 10.0 mi North 6.9 mph - N/A   Clear
11:59 PM 64.8 °F - 50.0 °F 59% 30.04 in 10.0 mi North 5.8 mph - N/A   Clear